This is the latest recevied weather packets stored in our database for station/object K2RMB. If no packets are shown the sender has not sent any weather packets the latest 10 day(s).
| Time | Temp. | Humidity | Pressure | Rain* | Wind** | Luminosity | Snow |
|---|---|---|---|---|---|---|---|
| 1777813215 | 5° C | 72% | 1011.1 hPa | 0 mm | - | 176 W/m² | - |
| 1777812911 | 4.44° C | 73% | 1010.8 hPa | 0 mm | - | 216 W/m² | - |
| 1777812608 | 5° C | 71% | 1011.1 hPa | 0 mm | - | 403 W/m² | - |
| 1777812305 | 4.44° C | 71% | 1011.1 hPa | 0 mm | - | 463 W/m² | - |
| 1777812003 | 4.44° C | 72% | 1011.1 hPa | 0 mm | - | 619 W/m² | - |
| 1777811702 | 4.44° C | 74% | 1010.8 hPa | 0 mm | - | 363 W/m² | - |
| 1777811397 | 4.44° C | 73% | 1010.8 hPa | 0 mm | - | 372 W/m² | - |
| 1777811094 | 3.89° C | 75% | 1011.1 hPa | 0 mm | - | 369 W/m² | - |
| 1777810792 | 3.33° C | 76% | 1010.8 hPa | 0 mm | - | 248 W/m² | - |
| 1777810489 | 3.33° C | 78% | 1010.8 hPa | 0 mm | - | 272 W/m² | - |
| 1777810184 | 3.33° C | 77% | 1011.1 hPa | 0 mm | - | 220 W/m² | - |
| 1777809881 | 3.89° C | 74% | 1010.8 hPa | 0 mm | - | 280 W/m² | - |
| 1777809579 | 3.33° C | 73% | 1010.8 hPa | 0 mm | - | 270 W/m² | - |
| 1777809277 | 2.78° C | 77% | 1010.8 hPa | 0 mm | - | 259 W/m² | - |
| 1777808975 | 3.33° C | 77% | 1011.1 hPa | 0 mm | - | 197 W/m² | - |
| 1777808672 | 2.78° C | 78% | 1010.8 hPa | 0 mm | - | 144 W/m² | - |
| 1777808363 | 2.78° C | 78% | 1010.8 hPa | 0 mm | - | 113 W/m² | - |
| 1777808061 | 2.78° C | 79% | 1010.8 hPa | 0 mm | - | 86 W/m² | - |
| 1777807758 | 2.78° C | 79% | 1010.8 hPa | 0 mm | - | 67 W/m² | - |
| 1777807457 | 2.22° C | 79% | 1010.8 hPa | 0 mm | - | 61 W/m² | - |
| 1777807156 | 2.22° C | 80% | 1010.8 hPa | 0 mm | - | 59 W/m² | - |
| 1777806855 | 2.22° C | 78% | 1010.8 hPa | 0 mm | - | 59 W/m² | - |
| 1777806551 | 2.22° C | 79% | 1010.8 hPa | 0 mm | - | 51 W/m² | - |
| 1777806247 | 2.22° C | 79% | 1010.4 hPa | 0 mm | - | 56 W/m² | - |
| 1777805943 | 2.22° C | 79% | 1010.8 hPa | 0 mm | - | 32 W/m² | - |
* Rain latest hour (hover to see other rain measurements)
** Current wind speed in m/s (hover to see current wind gust speed)